createdAt,value
2018-04-27T00:02:08.757Z,77.50
2018-04-27T00:07:03.181Z,78.00
2018-04-27T00:11:57.643Z,78.10
2018-04-27T00:16:52.069Z,78.30
2018-04-27T00:21:47.422Z,79.30
2018-04-27T00:26:41.871Z,79.10
2018-04-27T00:31:36.284Z,78.80
2018-04-27T00:36:30.838Z,78.70
2018-04-27T00:41:25.560Z,79.40
2018-04-27T00:46:20.142Z,79.70
2018-04-27T00:51:14.597Z,80.40
2018-04-27T00:56:09.000Z,80.80
2018-04-27T01:01:03.432Z,81.00
2018-04-27T01:05:58.634Z,81.80
2018-04-27T01:10:53.054Z,81.80
2018-04-27T01:15:48.311Z,81.10
2018-04-27T01:20:42.729Z,81.10
2018-04-27T01:25:37.225Z,81.10
2018-04-27T01:30:31.686Z,81.10
2018-04-27T01:35:26.863Z,81.20
2018-04-27T01:40:21.678Z,81.20
2018-04-27T01:45:16.080Z,81.30
2018-04-27T01:50:11.617Z,81.40
2018-04-27T01:55:06.140Z,81.40
2018-04-27T02:00:01.763Z,81.10
2018-04-27T02:04:56.744Z,81.10
2018-04-27T02:09:51.177Z,81.40
2018-04-27T02:14:45.548Z,81.80
2018-04-27T02:19:39.903Z,81.50
2018-04-27T02:24:34.296Z,81.90
2018-04-27T02:29:28.875Z,82.20
2018-04-27T02:34:23.220Z,81.90
2018-04-27T02:39:17.582Z,82.00
2018-04-27T02:44:11.960Z,81.90
2018-04-27T02:49:07.105Z,82.40
2018-04-27T02:54:01.514Z,81.60
2018-04-27T02:58:55.960Z,81.70
2018-04-27T03:03:51.103Z,80.70
2018-04-27T03:08:45.468Z,80.60
2018-04-27T03:13:39.836Z,80.60
2018-04-27T03:18:33.984Z,80.50
2018-04-27T03:23:28.369Z,80.70
2018-04-27T03:28:22.985Z,80.60
2018-04-27T03:33:17.726Z,80.90
2018-04-27T03:38:12.843Z,80.70
2018-04-27T03:43:08.147Z,81.70
2018-04-27T03:48:02.720Z,81.00
2018-04-27T03:52:57.070Z,81.00
2018-04-27T03:57:52.184Z,82.20
2018-04-27T04:03:03.686Z,82.20
2018-04-27T04:07:58.843Z,83.10
2018-04-27T04:12:53.231Z,82.30
2018-04-27T04:17:48.370Z,84.70
2018-04-27T04:22:42.793Z,84.60
2018-04-27T04:27:37.197Z,85.10
2018-04-27T04:32:32.025Z,86.00
2018-04-27T04:37:27.002Z,87.70
2018-04-27T04:42:22.430Z,87.90
2018-04-27T04:47:16.865Z,87.80
2018-04-27T04:52:11.051Z,87.90
2018-04-27T04:57:05.510Z,88.90
2018-04-27T05:02:00.677Z,90.10
2018-04-27T05:06:55.019Z,90.10
2018-04-27T05:11:49.384Z,90.10
2018-04-27T05:16:43.725Z,90.00
2018-04-27T05:21:39.595Z,87.20
2018-04-27T05:26:34.118Z,87.20
2018-04-27T05:31:28.231Z,85.60
2018-04-27T05:36:22.583Z,84.10
2018-04-27T05:41:18.873Z,80.30
2018-04-27T05:46:13.000Z,80.30
2018-04-27T05:51:06.688Z,75.50
2018-04-27T05:56:00.990Z,69.30
2018-04-27T06:00:55.365Z,65.20
2018-04-27T06:05:50.050Z,66.20
2018-04-27T06:10:44.419Z,64.50
2018-04-27T06:15:39.851Z,60.90
2018-04-27T06:20:35.180Z,57.90
2018-04-27T06:25:30.527Z,56.50
2018-04-27T06:30:25.114Z,56.40
2018-04-27T06:35:20.222Z,45.50
2018-04-27T06:40:14.585Z,45.50
2018-04-27T06:45:09.218Z,45.10
2018-04-27T06:50:03.659Z,44.30
2018-04-27T06:54:58.809Z,46.10
2018-04-27T06:59:53.202Z,46.00
2018-04-27T07:04:47.557Z,46.80
2018-04-27T07:09:42.650Z,46.00
2018-04-27T07:14:37.036Z,45.00
2018-04-27T07:19:31.466Z,46.10
2018-04-27T07:24:25.903Z,45.40
2018-04-27T07:29:21.269Z,44.70
2018-04-27T07:34:15.739Z,44.70
2018-04-27T07:39:10.472Z,43.20
2018-04-27T07:44:04.867Z,39.50
2018-04-27T07:48:59.297Z,37.20
2018-04-27T07:53:53.672Z,36.10
2018-04-27T07:58:48.027Z,34.40
2018-04-27T08:03:42.597Z,31.60
2018-04-27T08:08:36.960Z,29.10
2018-04-27T08:13:32.111Z,27.80
2018-04-27T08:18:26.397Z,27.60
2018-04-27T08:23:21.530Z,27.30
2018-04-27T08:28:15.940Z,27.20
2018-04-27T08:33:10.438Z,26.70
2018-04-27T08:38:05.019Z,26.70
2018-04-27T08:43:00.171Z,25.50
2018-04-27T08:47:54.525Z,25.50
2018-04-27T08:52:49.233Z,25.20
2018-04-27T08:57:43.370Z,24.80
2018-04-27T09:02:37.817Z,22.50
2018-04-27T09:07:33.497Z,21.00
2018-04-27T09:12:30.012Z,20.80
2018-04-27T09:17:24.597Z,20.80
2018-04-27T09:22:19.871Z,20.40
2018-04-27T09:27:15.141Z,20.30
2018-04-27T09:32:10.594Z,19.00
2018-04-27T09:37:05.056Z,18.90
2018-04-27T09:41:59.812Z,19.00
2018-04-27T09:46:54.151Z,19.60
2018-04-27T09:51:49.308Z,23.60
2018-04-27T09:56:43.999Z,23.50
2018-04-27T10:01:38.480Z,24.30
2018-04-27T10:06:33.846Z,25.50
2018-04-27T10:11:28.463Z,25.40
2018-04-27T10:16:22.964Z,25.90
2018-04-27T10:21:17.325Z,26.30
2018-04-27T10:26:11.956Z,26.60
2018-04-27T10:31:06.682Z,26.60
2018-04-27T10:36:01.070Z,27.00
2018-04-27T10:40:56.450Z,28.10
2018-04-27T10:45:50.810Z,28.10
2018-04-27T10:50:45.295Z,28.10
2018-04-27T10:55:40.361Z,27.60
2018-04-27T11:00:36.377Z,27.80
2018-04-27T11:05:30.237Z,27.80
2018-04-27T11:10:24.653Z,26.50
2018-04-27T11:15:19.970Z,27.00
2018-04-27T11:20:14.463Z,26.90
2018-04-27T11:25:09.713Z,26.10
2018-04-27T11:30:04.301Z,26.40
2018-04-27T11:34:59.520Z,25.90
2018-04-27T11:39:54.701Z,25.60
2018-04-27T11:44:49.644Z,25.60
2018-04-27T11:49:44.917Z,26.50
2018-04-27T11:54:39.282Z,26.50
2018-04-27T11:59:33.789Z,27.20
2018-04-27T12:04:28.717Z,27.80
2018-04-27T12:09:23.151Z,27.80
2018-04-27T12:14:17.592Z,28.30
2018-04-27T12:19:12.056Z,29.20
2018-04-27T12:24:06.664Z,29.10
2018-04-27T12:29:01.618Z,29.30
2018-04-27T12:33:56.357Z,30.00
2018-04-27T12:38:51.598Z,30.80
2018-04-27T12:43:46.170Z,30.70
2018-04-27T12:48:41.196Z,31.80
2018-04-27T12:53:36.312Z,32.00
2018-04-27T12:58:31.613Z,30.80
2018-04-27T13:03:26.085Z,30.80
2018-04-27T13:08:20.210Z,30.70
2018-04-27T13:13:14.589Z,31.50
2018-04-27T13:18:08.937Z,30.80
2018-04-27T13:23:03.482Z,31.70
2018-04-27T13:27:57.850Z,31.30
2018-04-27T13:32:53.131Z,31.20
2018-04-27T13:37:47.633Z,31.20
2018-04-27T13:42:42.014Z,29.70
2018-04-27T13:47:36.571Z,30.30
2018-04-27T13:52:31.065Z,29.80
2018-04-27T13:57:25.448Z,29.90
2018-04-27T14:02:20.178Z,28.80
2018-04-27T14:07:13.959Z,29.40
2018-04-27T14:12:08.371Z,28.80
2018-04-27T14:17:02.819Z,28.50
2018-04-27T14:21:57.186Z,28.60
2018-04-27T14:26:51.612Z,29.30
2018-04-27T14:31:46.981Z,29.60
2018-04-27T14:36:41.353Z,29.60
2018-04-27T14:41:35.957Z,29.50
2018-04-27T14:46:30.585Z,29.80
2018-04-27T14:51:25.456Z,30.10
2018-04-27T14:56:20.997Z,31.70
2018-04-27T15:01:16.263Z,32.10
2018-04-27T15:06:12.835Z,32.00
2018-04-27T15:11:07.054Z,31.70
2018-04-27T15:16:01.548Z,32.00
2018-04-27T15:20:55.910Z,32.00
2018-04-27T15:25:50.258Z,32.20
2018-04-27T15:30:44.631Z,32.30
2018-04-27T15:35:38.777Z,32.70
2018-04-27T15:40:33.304Z,32.70
2018-04-27T15:45:28.437Z,32.70
2018-04-27T15:50:22.776Z,32.70
2018-04-27T15:55:17.211Z,32.90
2018-04-27T16:00:12.330Z,33.70
2018-04-27T16:05:06.841Z,33.60
2018-04-27T16:10:02.216Z,33.80
2018-04-27T16:14:56.796Z,34.30
2018-04-27T16:19:53.643Z,34.20
2018-04-27T16:24:48.779Z,33.70
2018-04-27T16:29:43.136Z,33.70
2018-04-27T16:34:37.491Z,33.90
2018-04-27T16:39:31.844Z,34.30
2018-04-27T16:44:26.201Z,34.60
2018-04-27T16:49:20.574Z,34.90
2018-04-27T16:54:15.701Z,35.10
2018-04-27T16:59:10.820Z,35.40
2018-04-27T17:04:05.986Z,35.50
2018-04-27T17:09:00.474Z,35.50
2018-04-27T17:13:55.009Z,35.90
2018-04-27T17:18:49.516Z,35.80
2018-04-27T17:23:43.893Z,35.50
2018-04-27T17:28:38.515Z,35.30
2018-04-27T17:33:33.012Z,35.30
2018-04-27T17:38:27.361Z,35.20
2018-04-27T17:43:21.760Z,35.00
2018-04-27T17:48:16.298Z,34.90
2018-04-27T17:53:10.674Z,35.10
2018-04-27T17:58:05.779Z,35.30
2018-04-27T18:03:00.380Z,35.30
2018-04-27T18:07:54.759Z,35.60
2018-04-27T18:12:49.129Z,36.10
2018-04-27T18:17:44.262Z,37.60
2018-04-27T18:22:38.846Z,37.60
2018-04-27T18:27:34.118Z,38.00
2018-04-27T18:32:28.507Z,38.00
2018-04-27T18:37:22.924Z,38.40
2018-04-27T18:42:17.269Z,39.40
2018-04-27T18:47:12.421Z,39.60
2018-04-27T18:52:06.571Z,39.60
2018-04-27T18:57:00.723Z,39.20
2018-04-27T19:01:54.823Z,39.30
2018-04-27T19:06:49.234Z,39.50
2018-04-27T19:11:42.861Z,40.30
2018-04-27T19:16:36.708Z,40.50
2018-04-27T19:21:31.104Z,40.70
2018-04-27T19:26:25.773Z,41.00
2018-04-27T19:31:20.411Z,41.80
2018-04-27T19:36:14.532Z,41.70
2018-04-27T19:41:08.909Z,41.50
2018-04-27T19:46:03.332Z,41.90
2018-04-27T19:50:57.816Z,41.80
2018-04-27T19:55:52.195Z,41.70
2018-04-27T20:00:46.845Z,41.70
2018-04-27T20:05:48.867Z,41.70
2018-04-27T20:10:44.889Z,41.90
2018-04-27T20:15:44.172Z,42.10
2018-04-27T20:20:37.784Z,42.70
2018-04-27T20:25:35.471Z,43.30
2018-04-27T20:30:29.674Z,43.30
2018-04-27T20:35:23.103Z,43.30
2018-04-27T20:40:16.762Z,43.80
2018-04-27T20:45:13.687Z,44.90
2018-04-27T20:50:07.422Z,45.40
2018-04-27T20:55:01.222Z,47.00
2018-04-27T20:59:56.312Z,49.70
2018-04-27T21:04:50.823Z,49.80
2018-04-27T21:09:45.168Z,50.40
2018-04-27T21:14:39.540Z,50.60
2018-04-27T21:19:34.652Z,50.70
2018-04-27T21:24:28.281Z,51.00
2018-04-27T21:29:22.706Z,50.90
2018-04-27T21:34:17.047Z,51.30
2018-04-27T21:39:15.368Z,51.60
2018-04-27T21:44:15.937Z,51.50
2018-04-27T21:49:25.568Z,52.10
2018-04-27T21:54:21.831Z,51.30
2018-04-27T21:59:22.062Z,50.90
2018-04-27T22:04:16.239Z,51.40
2018-04-27T22:09:10.623Z,51.40
2018-04-27T22:14:05.145Z,51.90
2018-04-27T22:18:58.556Z,52.90
2018-04-27T22:24:05.325Z,54.20
2018-04-27T22:29:00.767Z,54.30
2018-04-27T22:33:56.823Z,55.10
2018-04-27T22:54:53.470Z,57.00
2018-04-27T22:59:51.208Z,57.50
2018-04-27T23:04:45.010Z,57.50
2018-04-27T23:09:39.201Z,57.60
2018-04-27T23:14:35.504Z,57.60
2018-04-27T23:19:37.305Z,57.60
2018-04-27T23:24:32.528Z,57.60
2018-04-27T23:29:26.483Z,58.00
2018-04-27T23:34:36.249Z,58.50
2018-04-27T23:39:31.435Z,58.70
2018-04-27T23:44:25.319Z,58.70
2018-04-27T23:49:21.244Z,59.30
2018-04-27T23:54:15.243Z,59.30
2018-04-27T23:59:09.582Z,59.40
